Terminal Aerodrome Forecast
Issued by NWS Sioux Falls, SD

Home | Current Version | Previous Version | Text Only | Print | Product List | Glossary On
Versions: 1 2 3 4 5 6 7 8 9 10 11 12 13 14 15 16 17 18 19
000
FTUS43 KFSD 260521
TAFFSD
TAF
KFSD 260521Z 2606/2706 32005KT P6SM BKN030
     FM260800 36005KT P6SM SCT035
     FM261400 07010KT P6SM BKN090
     FM262000 08015G23KT P6SM BKN050
     FM270300 07019G26KT P6SM SHRA OVC020=

USA.gov is the U.S. government's official web portal to all federal, state and local government web resources and services.